FR-0285 weather

CLOSED La Clusaz Airport
La Clusaz, Rhône Alpes, France

Public forecast

Using degrees Celsius for public forecast. Weather courtesy of forecast.io.

METAR (pilot weather report)

Closest report is Annecy-Haute-Savoie-Mont Blanc Airport, 13.7 nm (25.5 km) WNW. Retrieved 2019/09/16 15:30 UTC (6 minutes ago):

LFLP 161530Z AUTO 01005KT 330V040 CAVOK 30/13 Q1019 NOSIG

TAF (pilot weather forecast)

Closest forecast is Annecy-Haute-Savoie-Mont Blanc Airport, 13.7 nm (25.5 km) WNW. Retrieved 2019/09/16 15:00 UTC (36 minutes ago):

TAF LFLP 161400Z 1615/1715 01005KT CAVOK BECMG 1619/1621 VRB03KT BECMG 1709/1711 27005KT